Terminal Aerodrome Forecast
Issued by NWS

Home | Current Version | Previous Version | Text Only | Print | Product List | Glossary On
Versions: 1 2 3 4 5 6 7 8 9 10 11 12 13
000
FTUS46 KMTR 041136
TAFSJC
TAF
KSJC 041136Z 0412/0512 18003KT P6SM SKC
     FM041700 VRB03KT P6SM FEW015
     FM041900 30010KT P6SM SCT180
     FM042300 31013KT P6SM SCT180
     FM050500 31008KT P6SM SCT180
     FM050900 32005KT P6SM OVC015
     FM051100 VRB03KT P6SM OVC007=

USA.gov is the U.S. government's official web portal to all federal, state and local government web resources and services.